Aérodrome :
LOGIN :

S'inscrire | Disclaimer

   EN    FR    IT 

 










Légende :    VFR   VFR Marginal   IFR   IFR Intensif   IFR Très Intensif
Visi : 
Plafond : 
>= 8 km
>= 3000ft
5 à 8 km
1000 à 3000 ft
1500m à 5 km
500 à 1000 ft
800 à 1500m
200 à 500 ft
< 800m
< 200 ft
Symboles :   Orages  Brouillard  Fortes neiges  Fortes précipitations  Vent > 20 kt
SIGMETs :   Divers  Orages  Givrage  Turbulence  Onde Orograph.  Cendres Volcan.






- Altitude de l'aérodrome : 79 ft
- Code IATA : NSY


LICZ - Sigonella (Mil) Catania

DERNIER METAR :
  • 300955Z 25006KT 8000 -RA SCT020 BKN070 12/12 Q1012 RMK OVC VIS MIN 8000 WIND THR28 26007KT WIND THR10 26007KT A2991 BLU

METARs EXPIRÉS :
  • 300855Z 26006KT 8000 -RA SCT020 BKN070 11/11 Q1012 RMK OVC VIS MIN 8000 WIND THR28 26006KT WIND THR10 26004KT A2991 BLU
  • 300755Z 27007KT 8000 -RA SCT020 BKN070 10/10 Q1012 RMK OVC VIS MIN 8000 WIND THR28 27005KT WIND THR10 27004KT A2990 BLU

TAF TAF LICZ
Valide du 30 à 06h jusqu'au 31 à 06h UTC


300500Z 3006/3106 28004KT 9999 SCT030 SCT080
TEMPO 3006/3015 RA
TEMPO 3100/3106 5000 BR NSC



MET'MAP, la Météo Aéronautique d'un coup d'oeil ! - Copyright ORBIFLY Décembre 2007 - Disclaimer

ORBIFLY MET'MAP TEAM :

Programmation & Développement : Alexandra Zaïnal
Sur une idée originale de : Baudouin d'Aumeries
Assistance à la programmation : Marc-Olivier Méhu
Soutien technique & logistique : Manuel Goepfert

Contact : metmap@orbifly.com




SOURCES & CREDITS :

   NOAA